createdAt,value
2019-02-14T00:00:28.775Z,10.60
2019-02-14T00:05:45.118Z,8.23
2019-02-14T00:11:20.770Z,9.33
2019-02-14T00:16:35.356Z,7.63
2019-02-14T00:21:49.757Z,8.67
2019-02-14T00:27:04.570Z,8.97
2019-02-14T00:32:19.059Z,9.53
2019-02-14T00:37:33.343Z,6.93
2019-02-14T00:42:48.310Z,8.47
2019-02-14T00:48:03.131Z,10.27
2019-02-14T00:53:17.516Z,11.33
2019-02-14T00:58:32.105Z,8.13
2019-02-14T01:03:46.550Z,8.67
2019-02-14T01:09:00.940Z,5.60
2019-02-14T01:14:16.871Z,7.97
2019-02-14T01:19:31.781Z,8.40
2019-02-14T01:24:46.288Z,9.67
2019-02-14T01:30:01.125Z,11.07
2019-02-14T01:35:15.697Z,11.00
2019-02-14T01:40:30.149Z,8.27
2019-02-14T01:45:46.253Z,9.80
2019-02-14T01:51:00.906Z,11.47
2019-02-14T01:56:15.557Z,7.93
2019-02-14T02:01:30.173Z,8.47
2019-02-14T02:06:45.882Z,10.23
2019-02-14T02:12:00.431Z,9.67
2019-02-14T02:17:14.933Z,7.73
2019-02-14T02:22:29.714Z,9.53
2019-02-14T02:27:44.243Z,11.33
2019-02-14T02:32:58.850Z,10.33
2019-02-14T02:38:13.534Z,15.40
2019-02-14T02:43:28.476Z,10.50
2019-02-14T02:48:43.240Z,8.73
2019-02-14T02:53:57.930Z,11.13
2019-02-14T02:59:14.150Z,12.87
2019-02-14T03:04:28.774Z,8.50
2019-02-14T03:09:43.106Z,11.07
2019-02-14T03:14:57.491Z,10.30
2019-02-14T03:20:21.689Z,9.00
2019-02-14T03:25:37.846Z,12.03
2019-02-14T03:36:19.131Z,12.60
2019-02-14T03:41:30.229Z,11.37
2019-02-14T03:46:44.375Z,10.60
2019-02-14T03:51:58.980Z,12.47
2019-02-14T03:57:13.427Z,11.27
2019-02-14T04:02:28.120Z,11.03
2019-02-14T04:07:42.578Z,8.83
2019-02-14T04:12:57.147Z,8.23
2019-02-14T04:18:11.528Z,9.70
2019-02-14T04:23:25.952Z,10.83
2019-02-14T04:28:40.425Z,10.50
2019-02-14T04:33:55.017Z,12.07
2019-02-14T04:39:09.722Z,10.87
2019-02-14T04:44:25.309Z,10.57
2019-02-14T04:49:39.935Z,11.00
2019-02-14T04:54:54.572Z,8.47
2019-02-14T05:00:10.649Z,10.13
2019-02-14T05:05:25.166Z,8.27
2019-02-14T05:10:39.855Z,12.60
2019-02-14T05:15:54.509Z,13.50
2019-02-14T05:21:09.266Z,8.13
2019-02-14T05:26:26.431Z,12.13
2019-02-14T05:31:41.051Z,10.97
2019-02-14T05:36:55.586Z,11.40
2019-02-14T05:42:10.340Z,12.30
2019-02-14T05:47:26.756Z,9.13
2019-02-14T05:52:40.812Z,12.77
2019-02-14T05:57:56.581Z,10.43
2019-02-14T06:03:11.201Z,10.87
2019-02-14T06:08:25.934Z,9.13
2019-02-14T06:13:40.575Z,9.77
2019-02-14T06:18:55.328Z,10.37
2019-02-14T06:24:10.155Z,9.83
2019-02-14T06:29:24.750Z,12.70
2019-02-14T06:34:39.317Z,11.70
2019-02-14T06:39:53.980Z,12.43
2019-02-14T06:45:11.056Z,10.47
2019-02-14T06:50:34.432Z,10.10
2019-02-14T06:55:51.884Z,11.30
2019-02-14T07:01:06.265Z,11.73
2019-02-14T07:06:20.992Z,13.53
2019-02-14T07:11:35.857Z,10.73
2019-02-14T07:16:50.423Z,11.77
2019-02-14T07:22:04.850Z,12.43
2019-02-14T07:27:21.232Z,12.77
2019-02-14T07:32:35.511Z,13.07
2019-02-14T07:37:49.822Z,10.77
2019-02-14T07:43:04.336Z,10.70
2019-02-14T07:48:18.756Z,10.57
2019-02-14T07:53:33.479Z,13.73
2019-02-14T07:58:48.199Z,11.03
2019-02-14T08:04:02.829Z,11.53
2019-02-14T08:09:17.605Z,12.27
2019-02-14T08:14:32.124Z,12.07
2019-02-14T08:19:46.789Z,13.77
2019-02-14T08:25:01.444Z,20.00
2019-02-14T08:30:17.110Z,12.40
2019-02-14T08:35:31.409Z,15.57
2019-02-14T08:40:46.260Z,11.37
2019-02-14T08:46:00.593Z,13.00
2019-02-14T08:51:14.987Z,15.23
2019-02-14T08:56:29.740Z,17.60
2019-02-14T09:01:44.327Z,14.53
2019-02-14T09:06:59.119Z,11.97
2019-02-14T09:12:13.484Z,14.37
2019-02-14T09:17:27.825Z,16.10
2019-02-14T09:22:42.105Z,14.30
2019-02-14T09:27:57.102Z,12.80
2019-02-14T09:33:11.741Z,13.80
2019-02-14T09:38:26.483Z,12.17
2019-02-14T09:43:40.909Z,13.90
2019-02-14T09:48:55.239Z,12.43
2019-02-14T09:54:09.870Z,13.53
2019-02-14T09:59:35.336Z,12.30
2019-02-14T10:04:49.980Z,13.63
2019-02-14T10:10:04.736Z,12.37
2019-02-14T10:15:19.100Z,13.87
2019-02-14T10:20:33.871Z,15.43
2019-02-14T10:31:09.928Z,16.23
2019-02-14T10:36:24.327Z,17.07
2019-02-14T10:41:39.000Z,19.50
2019-02-14T10:46:53.578Z,15.87
2019-02-14T10:52:08.240Z,20.53
2019-02-14T10:57:24.234Z,12.53
2019-02-14T11:02:39.118Z,17.73
2019-02-14T11:07:53.395Z,13.07
2019-02-14T11:13:08.184Z,18.73
2019-02-14T11:18:23.205Z,20.60
2019-02-14T11:23:38.192Z,17.67
2019-02-14T11:28:52.406Z,14.50
2019-02-14T11:34:06.757Z,14.77
2019-02-14T11:39:21.489Z,16.33
2019-02-14T11:44:39.780Z,15.10
2019-02-14T11:49:52.293Z,11.87
2019-02-14T11:55:06.590Z,7.20
2019-02-14T12:00:22.869Z,8.43
2019-02-14T12:05:37.415Z,6.70
2019-02-14T12:10:52.629Z,6.67
2019-02-14T12:16:07.520Z,10.40
2019-02-14T12:21:21.895Z,5.40
2019-02-14T12:26:36.333Z,6.50
2019-02-14T12:31:50.729Z,5.27
2019-02-14T12:37:05.674Z,4.70
2019-02-14T12:42:20.175Z,4.40
2019-02-14T12:47:35.605Z,5.60
2019-02-14T12:52:49.932Z,7.93
2019-02-14T12:58:04.958Z,4.90
2019-02-14T13:03:19.413Z,5.20
2019-02-14T13:08:34.166Z,7.73
2019-02-14T13:13:51.807Z,6.07
2019-02-14T13:19:06.176Z,7.03
2019-02-14T13:24:20.536Z,5.83
2019-02-14T13:29:35.009Z,6.77
2019-02-14T13:34:49.724Z,5.70
2019-02-14T13:40:04.684Z,5.10
2019-02-14T13:45:21.855Z,4.23
2019-02-14T13:50:36.413Z,4.13
2019-02-14T13:55:50.804Z,5.03
2019-02-14T14:01:05.314Z,4.30
2019-02-14T14:06:20.092Z,5.97
2019-02-14T14:11:34.746Z,6.70
2019-02-14T14:16:49.859Z,3.97
2019-02-14T14:22:04.575Z,2.57
2019-02-14T14:27:19.304Z,2.40
2019-02-14T14:32:33.735Z,3.30
2019-02-14T14:37:50.806Z,2.90
2019-02-14T14:43:33.273Z,3.37
2019-02-14T14:48:47.885Z,3.40
2019-02-14T14:54:02.523Z,3.47
2019-02-14T14:59:17.245Z,5.13
2019-02-14T15:04:31.816Z,4.10
2019-02-14T15:09:46.945Z,7.97
2019-02-14T15:15:01.668Z,3.53
2019-02-14T15:20:16.307Z,3.63
2019-02-14T15:25:30.682Z,3.33
2019-02-14T15:30:45.132Z,3.00
2019-02-14T15:36:00.124Z,2.53
2019-02-14T15:41:14.780Z,2.40
2019-02-14T15:46:29.241Z,6.70
2019-02-14T15:51:43.849Z,2.83
2019-02-14T15:56:58.631Z,3.40
2019-02-14T16:02:13.131Z,4.70
2019-02-14T16:07:28.677Z,4.70
2019-02-14T16:12:45.612Z,3.47
2019-02-14T16:18:01.495Z,2.43
2019-02-14T16:23:15.706Z,4.50
2019-02-14T16:28:30.806Z,5.00
2019-02-14T16:33:45.343Z,6.50
2019-02-14T16:39:01.434Z,3.87
2019-02-14T16:44:17.420Z,4.53
2019-02-14T16:49:31.834Z,4.73
2019-02-14T16:54:46.707Z,3.40
2019-02-14T17:00:01.195Z,5.67
2019-02-14T17:05:16.288Z,3.53
2019-02-14T17:10:36.637Z,4.37
2019-02-14T17:15:46.723Z,5.30
2019-02-14T17:21:01.341Z,4.60
2019-02-14T17:26:15.660Z,4.60
2019-02-14T17:31:30.262Z,5.73
2019-02-14T17:36:44.819Z,8.97
2019-02-14T17:41:59.595Z,9.20
2019-02-14T17:47:14.348Z,5.30
2019-02-14T17:52:28.728Z,4.23
2019-02-14T17:57:43.376Z,5.37
2019-02-14T18:02:58.759Z,5.40
2019-02-14T18:08:13.498Z,5.63
2019-02-14T18:13:28.086Z,4.57
2019-02-14T18:18:42.748Z,5.30
2019-02-14T18:23:57.607Z,5.33
2019-02-14T18:29:12.365Z,6.47
2019-02-14T18:34:27.161Z,5.57
2019-02-14T18:39:41.809Z,5.70
2019-02-14T18:44:56.306Z,6.40
2019-02-14T18:50:12.678Z,8.90
2019-02-14T19:00:48.823Z,5.53
2019-02-14T19:06:03.395Z,7.77
2019-02-14T19:11:18.272Z,5.60
2019-02-14T19:16:32.773Z,7.30
2019-02-14T19:21:47.028Z,6.17
2019-02-14T19:27:01.631Z,6.87
2019-02-14T19:32:16.322Z,8.40
2019-02-14T19:37:30.889Z,7.47
2019-02-14T19:42:45.672Z,8.17
2019-02-14T19:47:59.943Z,9.70
2019-02-14T19:53:15.097Z,7.37
2019-02-14T19:58:29.797Z,10.80
2019-02-14T20:03:44.389Z,10.00
2019-02-14T20:08:59.643Z,9.77
2019-02-14T20:14:14.306Z,11.53
2019-02-14T20:19:28.877Z,9.17
2019-02-14T20:24:43.581Z,9.67
2019-02-14T20:30:01.853Z,9.27
2019-02-14T20:35:16.516Z,11.83
2019-02-14T20:40:50.237Z,8.77
2019-02-14T20:46:04.838Z,10.27
2019-02-14T20:51:21.390Z,8.43
2019-02-14T20:56:37.233Z,10.13
2019-02-14T21:01:54.519Z,9.70
2019-02-14T21:07:10.365Z,9.73
2019-02-14T21:12:24.885Z,10.53
2019-02-14T21:17:40.249Z,10.13
2019-02-14T21:22:55.050Z,10.93
2019-02-14T21:28:10.317Z,9.13
2019-02-14T21:33:24.747Z,9.57
2019-02-14T21:38:39.257Z,7.80
2019-02-14T21:43:54.065Z,9.47
2019-02-14T21:49:08.841Z,9.90
2019-02-14T21:54:23.492Z,7.70
2019-02-14T21:59:38.553Z,10.33
2019-02-14T22:04:54.025Z,11.03
2019-02-14T22:10:09.842Z,11.30
2019-02-14T22:15:24.779Z,11.10
2019-02-14T22:20:39.767Z,8.40
2019-02-14T22:25:54.361Z,10.30
2019-02-14T22:31:09.403Z,15.70
2019-02-14T22:36:24.357Z,11.27
2019-02-14T22:41:39.163Z,11.93
2019-02-14T22:46:53.832Z,10.07
2019-02-14T22:52:08.453Z,11.80
2019-02-14T22:57:23.585Z,12.27
2019-02-14T23:02:38.332Z,13.33
2019-02-14T23:07:53.137Z,10.10
2019-02-14T23:13:07.924Z,9.67
2019-02-14T23:18:22.573Z,9.37
2019-02-14T23:23:36.947Z,13.50
2019-02-14T23:28:51.859Z,10.33
2019-02-14T23:34:06.304Z,11.37
2019-02-14T23:39:21.119Z,10.97
2019-02-14T23:44:35.498Z,14.77
2019-02-14T23:49:50.138Z,13.30
2019-02-14T23:55:04.740Z,10.33
